sensor_id;sensor_type;location;lat;lon;timestamp;pressure;altitude;pressure_sealevel;temperature;humidity
76940;BME280;65885;55.848;35.916;2023-08-06T00:01:37;99534.91;;;18.45;67.58
76940;BME280;65885;55.848;35.916;2023-08-06T00:04:05;99527.78;;;18.46;67.74
76940;BME280;65885;55.848;35.916;2023-08-06T00:06:32;99536.59;;;18.46;67.55
76940;BME280;65885;55.848;35.916;2023-08-06T00:08:59;99533.09;;;18.46;67.04
76940;BME280;65885;55.848;35.916;2023-08-06T00:11:28;99530.44;;;18.46;67.09
76940;BME280;65885;55.848;35.916;2023-08-06T00:13:56;99530.44;;;18.46;66.92
76940;BME280;65885;55.848;35.916;2023-08-06T00:16:23;99533.00;;;18.47;66.90
76940;BME280;65885;55.848;35.916;2023-08-06T00:18:50;99525.03;;;18.47;66.95
76940;BME280;65885;55.848;35.916;2023-08-06T00:21:18;99532.13;;;18.47;66.65
76940;BME280;65885;55.848;35.916;2023-08-06T00:23:45;99541.69;;;18.49;67.57
76940;BME280;65885;55.848;35.916;2023-08-06T00:26:12;99533.00;;;18.47;66.48
76940;BME280;65885;55.848;35.916;2023-08-06T00:28:41;99529.25;;;18.50;66.89
76940;BME280;65885;55.848;35.916;2023-08-06T00:31:08;99534.56;;;18.50;67.16
76940;BME280;65885;55.848;35.916;2023-08-06T00:33:36;99536.25;;;18.51;66.94
76940;BME280;65885;55.848;35.916;2023-08-06T00:36:03;99530.00;;;18.52;67.11
76940;BME280;65885;55.848;35.916;2023-08-06T00:38:30;99531.69;;;18.53;66.62
76940;BME280;65885;55.848;35.916;2023-08-06T00:40:58;99536.06;;;18.54;67.12
76940;BME280;65885;55.848;35.916;2023-08-06T00:43:25;99544.75;;;18.56;67.52
76940;BME280;65885;55.848;35.916;2023-08-06T00:45:54;99539.31;;;18.57;68.30
76940;BME280;65885;55.848;35.916;2023-08-06T00:48:22;99536.66;;;18.57;68.40
76940;BME280;65885;55.848;35.916;2023-08-06T00:50:50;99536.66;;;18.57;68.55
76940;BME280;65885;55.848;35.916;2023-08-06T00:53:17;99533.16;;;18.57;68.00
76940;BME280;65885;55.848;35.916;2023-08-06T00:55:45;99534.00;;;18.57;67.86
76940;BME280;65885;55.848;35.916;2023-08-06T00:58:12;99525.94;;;18.59;68.18
76940;BME280;65885;55.848;35.916;2023-08-06T01:00:41;99534.13;;;18.56;67.42
76940;BME280;65885;55.848;35.916;2023-08-06T01:03:10;99533.16;;;18.57;67.66
76940;BME280;65885;55.848;35.916;2023-08-06T01:05:37;99533.28;;;18.55;67.39
76940;BME280;65885;55.848;35.916;2023-08-06T01:08:13;99533.28;;;18.55;67.30
76940;BME280;65885;55.848;35.916;2023-08-06T01:11:07;99537.75;;;18.55;67.65
76940;BME280;65885;55.848;35.916;2023-08-06T01:13:38;99543.06;;;18.55;68.52
76940;BME280;65885;55.848;35.916;2023-08-06T01:16:09;99533.41;;;18.54;68.51
76940;BME280;65885;55.848;35.916;2023-08-06T01:18:38;99540.63;;;18.52;69.01
76940;BME280;65885;55.848;35.916;2023-08-06T01:21:09;99540.63;;;18.52;68.45
76940;BME280;65885;55.848;35.916;2023-08-06T01:23:36;99538.91;;;18.51;68.46
76940;BME280;65885;55.848;35.916;2023-08-06T01:26:11;99552.19;;;18.51;68.53
76940;BME280;65885;55.848;35.916;2023-08-06T01:28:50;99549.44;;;18.52;68.23
76940;BME280;65885;55.848;35.916;2023-08-06T01:31:22;99550.31;;;18.53;68.44
76940;BME280;65885;55.848;35.916;2023-08-06T01:33:53;99546.69;;;18.54;68.54
76940;BME280;65885;55.848;35.916;2023-08-06T01:36:23;99550.06;;;18.56;68.43
76940;BME280;65885;55.848;35.916;2023-08-06T01:38:51;99550.91;;;18.56;68.71
76940;BME280;65885;55.848;35.916;2023-08-06T01:41:19;99548.13;;;18.58;68.80
76940;BME280;65885;55.848;35.916;2023-08-06T01:43:47;99535.81;;;18.57;68.43
76940;BME280;65885;55.848;35.916;2023-08-06T01:46:14;99537.50;;;18.58;68.34
76940;BME280;65885;55.848;35.916;2023-08-06T01:48:41;99545.47;;;18.58;68.08
76940;BME280;65885;55.848;35.916;2023-08-06T01:51:09;99548.06;;;18.60;67.91
76940;BME280;65885;55.848;35.916;2023-08-06T01:53:38;99556.88;;;18.60;67.45
76940;BME280;65885;55.848;35.916;2023-08-06T01:56:05;99548.78;;;18.62;67.12
76940;BME280;65885;55.848;35.916;2023-08-06T01:58:32;99557.59;;;18.62;66.84
76940;BME280;65885;55.848;35.916;2023-08-06T02:01:01;99561.09;;;18.63;66.22
76940;BME280;65885;55.848;35.916;2023-08-06T02:03:28;99560.13;;;18.64;66.51
76940;BME280;65885;55.848;35.916;2023-08-06T02:05:56;99555.66;;;18.64;66.93
76940;BME280;65885;55.848;35.916;2023-08-06T02:08:23;99552.03;;;18.65;67.90
76940;BME280;65885;55.848;35.916;2023-08-06T02:10:52;99563.63;;;18.64;68.32
76940;BME280;65885;55.848;35.916;2023-08-06T02:13:19;99566.28;;;18.64;67.71
76940;BME280;65885;55.848;35.916;2023-08-06T02:15:47;99561.81;;;18.65;67.31
76940;BME280;65885;55.848;35.916;2023-08-06T02:18:14;99561.75;;;18.66;67.35
76940;BME280;65885;55.848;35.916;2023-08-06T02:20:42;99565.16;;;18.68;67.81
76940;BME280;65885;55.848;35.916;2023-08-06T02:23:09;99559.84;;;18.68;67.94
76940;BME280;65885;55.848;35.916;2023-08-06T02:25:36;99554.53;;;18.68;68.23
76940;BME280;65885;55.848;35.916;2023-08-06T02:28:05;99573.00;;;18.70;68.07
76940;BME280;65885;55.848;35.916;2023-08-06T02:30:33;99559.59;;;18.71;67.86
76940;BME280;65885;55.848;35.916;2023-08-06T02:33:00;99563.00;;;18.73;68.30
76940;BME280;65885;55.848;35.916;2023-08-06T02:35:27;99566.50;;;18.74;67.48
76940;BME280;65885;55.848;35.916;2023-08-06T02:37:55;99567.13;;;18.77;67.56
76940;BME280;65885;55.848;35.916;2023-08-06T02:40:22;99565.94;;;18.81;68.20
76940;BME280;65885;55.848;35.916;2023-08-06T02:42:49;99560.53;;;18.83;68.77
76940;BME280;65885;55.848;35.916;2023-08-06T02:45:18;99568.25;;;18.86;68.44
76940;BME280;65885;55.848;35.916;2023-08-06T02:47:45;99569.84;;;18.89;68.94
76940;BME280;65885;55.848;35.916;2023-08-06T02:50:13;99561.66;;;18.92;68.66
76940;BME280;65885;55.848;35.916;2023-08-06T02:52:40;99559.72;;;18.94;68.44
76940;BME280;65885;55.848;35.916;2023-08-06T02:55:07;99569.19;;;18.98;68.65
76940;BME280;65885;55.848;35.916;2023-08-06T02:57:35;99567.00;;;19.03;68.97
76940;BME280;65885;55.848;35.916;2023-08-06T03:00:03;99573.94;;;19.05;68.94
76940;BME280;65885;55.848;35.916;2023-08-06T03:02:32;99576.47;;;19.07;68.29
76940;BME280;65885;55.848;35.916;2023-08-06T03:04:59;99570.78;;;19.11;67.96
76940;BME280;65885;55.848;35.916;2023-08-06T03:07:27;99574.81;;;19.17;68.15
76940;BME280;65885;55.848;35.916;2023-08-06T03:09:54;99577.00;;;19.23;68.79
76940;BME280;65885;55.848;35.916;2023-08-06T03:12:21;99575.84;;;19.27;69.19
76940;BME280;65885;55.848;35.916;2023-08-06T03:14:49;99567.50;;;19.32;69.58
76940;BME280;65885;55.848;35.916;2023-08-06T03:17:16;99568.00;;;19.37;69.63
76940;BME280;65885;55.848;35.916;2023-08-06T03:19:45;99565.81;;;19.42;69.52
76940;BME280;65885;55.848;35.916;2023-08-06T03:22:12;99561.84;;;19.48;69.57
76940;BME280;65885;55.848;35.916;2023-08-06T03:24:40;99557.03;;;19.53;69.75
76940;BME280;65885;55.848;35.916;2023-08-06T03:27:07;99558.28;;;19.60;69.83
76940;BME280;65885;55.848;35.916;2023-08-06T03:29:35;99557.91;;;19.64;70.03
76940;BME280;65885;55.848;35.916;2023-08-06T03:32:02;99559.16;;;19.72;70.07
76940;BME280;65885;55.848;35.916;2023-08-06T03:34:29;99567.50;;;19.78;69.94
76940;BME280;65885;55.848;35.916;2023-08-06T03:36:58;99559.91;;;19.85;70.07
76940;BME280;65885;55.848;35.916;2023-08-06T03:39:26;99563.78;;;19.92;69.96
76940;BME280;65885;55.848;35.916;2023-08-06T03:41:53;99557.97;;;19.98;70.61
76940;BME280;65885;55.848;35.916;2023-08-06T03:44:21;99561.84;;;20.05;70.64
76940;BME280;65885;55.848;35.916;2023-08-06T03:46:48;99561.38;;;20.11;70.54
76940;BME280;65885;55.848;35.916;2023-08-06T03:49:15;99554.59;;;20.18;70.78
76940;BME280;65885;55.848;35.916;2023-08-06T03:51:42;99551.41;;;20.24;70.50
76940;BME280;65885;55.848;35.916;2023-08-06T03:54:11;99551.66;;;20.33;70.86
76940;BME280;65885;55.848;35.916;2023-08-06T03:56:39;99549.34;;;20.39;70.51
76940;BME280;65885;55.848;35.916;2023-08-06T03:59:07;99552.28;;;20.47;70.17
76940;BME280;65885;55.848;35.916;2023-08-06T04:01:34;99556.97;;;20.55;69.98
76940;BME280;65885;55.848;35.916;2023-08-06T04:04:02;99563.28;;;20.65;70.45
76940;BME280;65885;55.848;35.916;2023-08-06T04:06:29;99554.66;;;20.73;70.97
76940;BME280;65885;55.848;35.916;2023-08-06T04:08:56;99550.53;;;20.80;70.36
76940;BME280;65885;55.848;35.916;2023-08-06T04:11:25;99548.19;;;20.87;70.14
76940;BME280;65885;55.848;35.916;2023-08-06T04:13:53;99553.63;;;20.96;70.16
76940;BME280;65885;55.848;35.916;2023-08-06T04:16:21;99552.84;;;21.05;70.37
76940;BME280;65885;55.848;35.916;2023-08-06T04:18:48;99556.69;;;21.13;70.28
76940;BME280;65885;55.848;35.916;2023-08-06T04:21:15;99553.38;;;21.20;69.88
76940;BME280;65885;55.848;35.916;2023-08-06T04:23:43;99554.47;;;21.29;69.89
76940;BME280;65885;55.848;35.916;2023-08-06T04:26:10;99556.34;;;21.38;69.95
76940;BME280;65885;55.848;35.916;2023-08-06T04:28:39;99550.50;;;21.44;69.70
76940;BME280;65885;55.848;35.916;2023-08-06T04:31:06;99555.06;;;21.53;69.75
76940;BME280;65885;55.848;35.916;2023-08-06T04:33:34;99559.63;;;21.63;70.12
76940;BME280;65885;55.848;35.916;2023-08-06T04:36:02;99550.97;;;21.70;70.33
76940;BME280;65885;55.848;35.916;2023-08-06T04:38:30;99546.66;;;21.79;70.03
76940;BME280;65885;55.848;35.916;2023-08-06T04:40:58;99553.88;;;21.88;70.12
76940;BME280;65885;55.848;35.916;2023-08-06T04:43:25;99554.75;;;21.98;69.98
76940;BME280;65885;55.848;35.916;2023-08-06T04:45:54;99553.13;;;22.07;69.56
76940;BME280;65885;55.848;35.916;2023-08-06T04:48:22;99549.53;;;22.18;69.80
76940;BME280;65885;55.848;35.916;2023-08-06T04:50:50;99546.03;;;22.27;69.13
76940;BME280;65885;55.848;35.916;2023-08-06T04:53:18;99553.97;;;22.38;69.34
76940;BME280;65885;55.848;35.916;2023-08-06T04:55:46;99548.66;;;22.48;69.64
76940;BME280;65885;55.848;35.916;2023-08-06T04:58:13;99552.31;;;22.56;69.92
76940;BME280;65885;55.848;35.916;2023-08-06T05:00:41;99549.56;;;22.67;69.58
76940;BME280;65885;55.848;35.916;2023-08-06T05:03:10;99552.09;;;22.79;69.20
76940;BME280;65885;55.848;35.916;2023-08-06T05:05:39;99547.50;;;22.90;69.02
76940;BME280;65885;55.848;35.916;2023-08-06T05:08:07;99543.69;;;23.03;68.77
76940;BME280;65885;55.848;35.916;2023-08-06T05:10:34;99547.94;;;23.15;68.69
76940;BME280;65885;55.848;35.916;2023-08-06T05:13:02;99541.31;;;23.29;68.29
76940;BME280;65885;55.848;35.916;2023-08-06T05:15:29;99542.81;;;23.41;68.15
76940;BME280;65885;55.848;35.916;2023-08-06T05:17:57;99543.53;;;23.52;67.86
76940;BME280;65885;55.848;35.916;2023-08-06T05:20:25;99548.59;;;23.65;67.76
76940;BME280;65885;55.848;35.916;2023-08-06T05:22:53;99547.44;;;23.77;67.58
76940;BME280;65885;55.848;35.916;2023-08-06T05:25:20;99541.91;;;23.89;67.37
76940;BME280;65885;55.848;35.916;2023-08-06T05:27:47;99542.56;;;24.00;67.76
76940;BME280;65885;55.848;35.916;2023-08-06T05:30:15;99537.88;;;24.12;67.60
76940;BME280;65885;55.848;35.916;2023-08-06T05:32:42;99542.03;;;24.24;67.36
76940;BME280;65885;55.848;35.916;2023-08-06T05:35:10;99536.38;;;24.37;67.27
76940;BME280;65885;55.848;35.916;2023-08-06T05:37:39;99536.16;;;24.48;67.18
76940;BME280;65885;55.848;35.916;2023-08-06T05:40:07;99534.97;;;24.60;66.84
76940;BME280;65885;55.848;35.916;2023-08-06T05:42:35;99533.75;;;24.73;66.84
76940;BME280;65885;55.848;35.916;2023-08-06T05:45:02;99535.09;;;24.86;66.03
76940;BME280;65885;55.848;35.916;2023-08-06T05:47:30;99530.16;;;25.00;65.89
76940;BME280;65885;55.848;35.916;2023-08-06T05:49:57;99524.28;;;25.14;66.01
76940;BME280;65885;55.848;35.916;2023-08-06T05:52:25;99526.56;;;25.27;65.74
76940;BME280;65885;55.848;35.916;2023-08-06T05:54:53;99526.03;;;25.41;65.72
76940;BME280;65885;55.848;35.916;2023-08-06T05:57:21;99528.28;;;25.54;65.72
76940;BME280;65885;55.848;35.916;2023-08-06T05:59:49;99524.88;;;25.69;65.67
76940;BME280;65885;55.848;35.916;2023-08-06T06:02:16;99523.16;;;25.86;65.50
76940;BME280;65885;55.848;35.916;2023-08-06T06:04:44;99529.28;;;26.05;65.51
76940;BME280;65885;55.848;35.916;2023-08-06T06:07:12;99528.06;;;26.25;65.58
76940;BME280;65885;55.848;35.916;2023-08-06T06:09:40;99523.63;;;26.50;65.29
76940;BME280;65885;55.848;35.916;2023-08-06T06:12:08;99522.19;;;26.80;65.25
76940;BME280;65885;55.848;35.916;2023-08-06T06:14:36;99518.41;;;27.15;64.99
76940;BME280;65885;55.848;35.916;2023-08-06T06:17:04;99520.38;;;27.54;64.86
76940;BME280;65885;55.848;35.916;2023-08-06T06:19:31;99523.19;;;27.93;63.98
76940;BME280;65885;55.848;35.916;2023-08-06T06:21:58;99518.53;;;28.34;63.95
76940;BME280;65885;55.848;35.916;2023-08-06T06:24:26;99514.38;;;28.78;63.19
76940;BME280;65885;55.848;35.916;2023-08-06T06:26:53;99524.75;;;29.20;62.68
76940;BME280;65885;55.848;35.916;2023-08-06T06:29:22;99528.63;;;29.63;62.26
76940;BME280;65885;55.848;35.916;2023-08-06T06:31:49;99524.44;;;30.05;61.55
76940;BME280;65885;55.848;35.916;2023-08-06T06:34:16;99529.22;;;30.47;60.93
76940;BME280;65885;55.848;35.916;2023-08-06T06:36:44;99526.78;;;30.88;60.84
76940;BME280;65885;55.848;35.916;2023-08-06T06:39:11;99520.28;;;31.26;59.42
76940;BME280;65885;55.848;35.916;2023-08-06T06:41:39;99520.53;;;31.59;58.65
76940;BME280;65885;55.848;35.916;2023-08-06T06:44:06;99517.47;;;31.90;57.84
76940;BME280;65885;55.848;35.916;2023-08-06T06:46:35;99516.19;;;32.20;57.11
76940;BME280;65885;55.848;35.916;2023-08-06T06:49:02;99516.53;;;32.45;56.09
76940;BME280;65885;55.848;35.916;2023-08-06T06:51:29;99524.53;;;32.67;55.32
76940;BME280;65885;55.848;35.916;2023-08-06T06:53:58;99518.78;;;32.90;55.48
76940;BME280;65885;55.848;35.916;2023-08-06T06:56:25;99519.22;;;33.06;54.57
76940;BME280;65885;55.848;35.916;2023-08-06T06:58:53;99514.63;;;33.20;54.12
76940;BME280;65885;55.848;35.916;2023-08-06T07:01:20;99513.81;;;33.33;53.59
76940;BME280;65885;55.848;35.916;2023-08-06T07:03:49;99514.47;;;33.42;53.02
76940;BME280;65885;55.848;35.916;2023-08-06T07:06:16;99512.34;;;33.50;53.14
76940;BME280;65885;55.848;35.916;2023-08-06T07:08:44;99505.25;;;33.56;52.20
76940;BME280;65885;55.848;35.916;2023-08-06T07:11:11;99505.84;;;33.58;51.83
76940;BME280;65885;55.848;35.916;2023-08-06T07:13:38;99502.94;;;33.59;51.45
76940;BME280;65885;55.848;35.916;2023-08-06T07:16:06;99507.94;;;33.62;51.04
76940;BME280;65885;55.848;35.916;2023-08-06T07:18:33;99508.75;;;33.63;50.73
76940;BME280;65885;55.848;35.916;2023-08-06T07:21:02;99505.66;;;33.59;48.60
76940;BME280;65885;55.848;35.916;2023-08-06T07:23:29;99501.25;;;33.58;47.70
76940;BME280;65885;55.848;35.916;2023-08-06T07:25:57;99496.03;;;33.63;48.19
76940;BME280;65885;55.848;35.916;2023-08-06T07:28:24;99496.63;;;33.72;48.10
76940;BME280;65885;55.848;35.916;2023-08-06T07:30:51;99483.63;;;33.81;47.25
76940;BME280;65885;55.848;35.916;2023-08-06T07:33:19;99493.25;;;33.90;46.80
76940;BME280;65885;55.848;35.916;2023-08-06T07:35:46;99499.09;;;34.00;46.63
76940;BME280;65885;55.848;35.916;2023-08-06T07:38:15;99492.38;;;34.16;46.84
76940;BME280;65885;55.848;35.916;2023-08-06T07:40:43;99493.53;;;34.33;47.62
76940;BME280;65885;55.848;35.916;2023-08-06T07:43:10;99488.22;;;34.52;46.56
76940;BME280;65885;55.848;35.916;2023-08-06T07:45:37;99484.38;;;34.66;46.53
76940;BME280;65885;55.848;35.916;2023-08-06T07:48:05;99489.50;;;34.87;46.09
76940;BME280;65885;55.848;35.916;2023-08-06T07:50:32;99484.78;;;35.08;45.61
76940;BME280;65885;55.848;35.916;2023-08-06T07:52:59;99483.59;;;35.22;44.76
76940;BME280;65885;55.848;35.916;2023-08-06T07:55:29;99482.63;;;35.35;43.99
76940;BME280;65885;55.848;35.916;2023-08-06T07:57:56;99485.28;;;35.48;44.85
76940;BME280;65885;55.848;35.916;2023-08-06T08:00:23;99484.94;;;35.63;43.80
76940;BME280;65885;55.848;35.916;2023-08-06T08:02:51;99476.56;;;35.82;43.26
76940;BME280;65885;55.848;35.916;2023-08-06T08:05:18;99479.38;;;35.94;42.47
76940;BME280;65885;55.848;35.916;2023-08-06T08:07:45;99480.53;;;36.05;41.70
76940;BME280;65885;55.848;35.916;2023-08-06T08:10:13;99479.28;;;36.19;42.78
76940;BME280;65885;55.848;35.916;2023-08-06T08:12:42;99469.84;;;36.33;42.25
76940;BME280;65885;55.848;35.916;2023-08-06T08:15:09;99475.19;;;36.47;41.87
76940;BME280;65885;55.848;35.916;2023-08-06T08:17:37;99474.53;;;36.63;41.74
76940;BME280;65885;55.848;35.916;2023-08-06T08:20:05;99472.78;;;36.80;41.23
76940;BME280;65885;55.848;35.916;2023-08-06T08:22:34;99466.91;;;36.95;40.09
76940;BME280;65885;55.848;35.916;2023-08-06T08:25:01;99467.88;;;37.01;38.30
76940;BME280;65885;55.848;35.916;2023-08-06T08:27:29;99469.91;;;37.05;39.52
76940;BME280;65885;55.848;35.916;2023-08-06T08:29:58;99473.16;;;37.14;39.63
76940;BME280;65885;55.848;35.916;2023-08-06T08:32:26;99473.88;;;37.21;39.40
76940;BME280;65885;55.848;35.916;2023-08-06T08:34:54;99468.19;;;37.34;39.40
76940;BME280;65885;55.848;35.916;2023-08-06T08:37:21;99468.91;;;37.41;39.16
76940;BME280;65885;55.848;35.916;2023-08-06T08:39:48;99468.44;;;37.44;38.45
76940;BME280;65885;55.848;35.916;2023-08-06T08:42:16;99461.53;;;37.54;38.90
76940;BME280;65885;55.848;35.916;2023-08-06T08:44:44;99461.53;;;37.65;39.08
76940;BME280;65885;55.848;35.916;2023-08-06T08:47:14;99465.69;;;37.68;37.72
76940;BME280;65885;55.848;35.916;2023-08-06T08:49:42;99454.16;;;37.66;37.45
76940;BME280;65885;55.848;35.916;2023-08-06T08:52:10;99453.31;;;37.65;37.00
76940;BME280;65885;55.848;35.916;2023-08-06T08:54:39;99451.66;;;37.64;36.00
76940;BME280;65885;55.848;35.916;2023-08-06T08:57:06;99453.31;;;37.65;36.25
76940;BME280;65885;55.848;35.916;2023-08-06T08:59:35;99445.19;;;37.70;36.19
76940;BME280;65885;55.848;35.916;2023-08-06T09:02:03;99448.06;;;37.75;36.83
76940;BME280;65885;55.848;35.916;2023-08-06T09:04:32;99447.72;;;37.84;36.25
76940;BME280;65885;55.848;35.916;2023-08-06T09:07:01;99452.69;;;37.98;36.07
76940;BME280;65885;55.848;35.916;2023-08-06T09:09:31;99441.91;;;38.09;35.52
76940;BME280;65885;55.848;35.916;2023-08-06T09:12:09;99438.66;;;38.23;35.83
76940;BME280;65885;55.848;35.916;2023-08-06T09:14:38;99436.75;;;38.36;35.03
76940;BME280;65885;55.848;35.916;2023-08-06T09:17:05;99430.97;;;38.49;35.29
76940;BME280;65885;55.848;35.916;2023-08-06T09:19:34;99444.00;;;38.70;35.54
76940;BME280;65885;55.848;35.916;2023-08-06T09:22:02;99437.19;;;38.90;35.16
76940;BME280;65885;55.848;35.916;2023-08-06T09:24:30;99423.06;;;39.15;35.41
76940;BME280;65885;55.848;35.916;2023-08-06T09:27:02;99432.47;;;39.35;34.79
76940;BME280;65885;55.848;35.916;2023-08-06T09:29:31;99422.22;;;39.48;34.50
76940;BME280;65885;55.848;35.916;2023-08-06T09:31:58;99419.38;;;39.59;33.68
76940;BME280;65885;55.848;35.916;2023-08-06T09:34:26;99418.19;;;39.72;33.75
76940;BME280;65885;55.848;35.916;2023-08-06T09:36:55;99417.66;;;39.75;32.26
76940;BME280;65885;55.848;35.916;2023-08-06T09:39:27;99416.41;;;39.83;33.09
76940;BME280;65885;55.848;35.916;2023-08-06T09:41:56;99408.59;;;39.97;32.66
76940;BME280;65885;55.848;35.916;2023-08-06T09:44:25;99411.25;;;40.08;32.55
76940;BME280;65885;55.848;35.916;2023-08-06T09:46:54;99415.66;;;40.09;32.13
76940;BME280;65885;55.848;35.916;2023-08-06T09:49:25;99412.97;;;40.14;31.46
76940;BME280;65885;55.848;35.916;2023-08-06T09:51:54;99402.19;;;40.13;30.87
76940;BME280;65885;55.848;35.916;2023-08-06T09:54:24;99389.06;;;40.15;31.43
76940;BME280;65885;55.848;35.916;2023-08-06T09:56:53;99389.34;;;40.18;31.01
76940;BME280;65885;55.848;35.916;2023-08-06T09:59:22;99391.63;;;40.27;31.17
76940;BME280;65885;55.848;35.916;2023-08-06T10:01:50;99395.06;;;40.39;31.29
76940;BME280;65885;55.848;35.916;2023-08-06T10:04:18;99389.13;;;40.47;30.88
76940;BME280;65885;55.848;35.916;2023-08-06T10:06:47;99390.78;;;40.48;30.54
76940;BME280;65885;55.848;35.916;2023-08-06T10:09:16;99378.19;;;40.52;30.06
76940;BME280;65885;55.848;35.916;2023-08-06T10:11:50;99376.56;;;40.56;30.60
76940;BME280;65885;55.848;35.916;2023-08-06T10:14:23;99376.06;;;40.64;30.61
76940;BME280;65885;55.848;35.916;2023-08-06T10:16:52;99375.03;;;40.70;29.96
76940;BME280;65885;55.848;35.916;2023-08-06T10:19:20;99378.13;;;40.79;31.04
76940;BME280;65885;55.848;35.916;2023-08-06T10:22:11;99375.22;;;40.91;30.62
76940;BME280;65885;55.848;35.916;2023-08-06T10:24:54;99367.09;;;41.06;30.20
76940;BME280;65885;55.848;35.916;2023-08-06T10:27:23;99365.47;;;41.15;29.99
76940;BME280;65885;55.848;35.916;2023-08-06T10:29:55;99366.34;;;41.21;30.29
76940;BME280;65885;55.848;35.916;2023-08-06T10:32:46;99360.66;;;41.33;29.64
76940;BME280;65885;55.848;35.916;2023-08-06T10:35:31;99359.91;;;41.42;29.53
76940;BME280;65885;55.848;35.916;2023-08-06T10:38:00;99366.75;;;41.40;28.97
76940;BME280;65885;55.848;35.916;2023-08-06T10:40:31;99370.91;;;41.42;28.58
76940;BME280;65885;55.848;35.916;2023-08-06T10:42:59;99364.03;;;41.45;28.13
76940;BME280;65885;55.848;35.916;2023-08-06T10:45:27;99369.56;;;41.50;28.53
76940;BME280;65885;55.848;35.916;2023-08-06T10:47:56;99367.94;;;41.54;28.16
76940;BME280;65885;55.848;35.916;2023-08-06T10:50:25;99364.91;;;41.55;27.65
76940;BME280;65885;55.848;35.916;2023-08-06T10:52:52;99358.00;;;41.53;27.28
76940;BME280;65885;55.848;35.916;2023-08-06T10:55:24;99369.06;;;41.58;27.48
76940;BME280;65885;55.848;35.916;2023-08-06T10:57:53;99363.28;;;41.60;27.34
76940;BME280;65885;55.848;35.916;2023-08-06T11:00:21;99366.56;;;41.56;26.89
76940;BME280;65885;55.848;35.916;2023-08-06T11:02:51;99365.66;;;41.36;26.75
76940;BME280;65885;55.848;35.916;2023-08-06T11:05:18;99350.84;;;41.10;27.87
76940;BME280;65885;55.848;35.916;2023-08-06T11:07:46;99344.97;;;40.96;28.45
76940;BME280;65885;55.848;35.916;2023-08-06T11:10:49;99349.81;;;40.84;28.61
76940;BME280;65885;55.848;35.916;2023-08-06T11:13:18;99344.22;;;40.68;28.20
76940;BME280;65885;55.848;35.916;2023-08-06T11:15:46;99343.06;;;40.64;28.79
76940;BME280;65885;55.848;35.916;2023-08-06T11:18:14;99346.28;;;40.56;29.30
76940;BME280;65885;55.848;35.916;2023-08-06T11:20:42;99342.22;;;40.64;29.13
76940;BME280;65885;55.848;35.916;2023-08-06T11:23:10;99341.72;;;40.67;28.63
76940;BME280;65885;55.848;35.916;2023-08-06T11:25:44;99328.59;;;40.79;28.34
76940;BME280;65885;55.848;35.916;2023-08-06T11:28:11;99332.28;;;40.90;28.57
76940;BME280;65885;55.848;35.916;2023-08-06T11:30:40;99323.81;;;40.96;27.98
76940;BME280;65885;55.848;35.916;2023-08-06T11:33:08;99326.31;;;41.03;28.12
76940;BME280;65885;55.848;35.916;2023-08-06T11:35:36;99329.59;;;41.00;27.61
76940;BME280;65885;55.848;35.916;2023-08-06T11:38:04;99319.41;;;41.00;27.62
76940;BME280;65885;55.848;35.916;2023-08-06T11:40:32;99313.09;;;41.00;28.21
76940;BME280;65885;55.848;35.916;2023-08-06T11:42:59;99317.53;;;41.06;28.23
76940;BME280;65885;55.848;35.916;2023-08-06T11:45:26;99317.56;;;41.16;28.42
76940;BME280;65885;55.848;35.916;2023-08-06T11:47:55;99313.72;;;41.17;28.14
76940;BME280;65885;55.848;35.916;2023-08-06T11:50:23;99314.31;;;41.19;28.01
76940;BME280;65885;55.848;35.916;2023-08-06T11:52:53;99314.31;;;41.24;27.67
76940;BME280;65885;55.848;35.916;2023-08-06T11:55:23;99311.03;;;41.27;27.51
76940;BME280;65885;55.848;35.916;2023-08-06T11:57:51;99310.25;;;41.32;26.89
76940;BME280;65885;55.848;35.916;2023-08-06T12:00:18;99317.72;;;41.37;27.71
76940;BME280;65885;55.848;35.916;2023-08-06T12:02:49;99314.69;;;41.38;28.03
76940;BME280;65885;55.848;35.916;2023-08-06T12:05:20;99309.19;;;41.38;28.49
76940;BME280;65885;55.848;35.916;2023-08-06T12:07:51;99314.13;;;41.41;28.12
76940;BME280;65885;55.848;35.916;2023-08-06T12:10:19;99306.72;;;41.37;27.75
76940;BME280;65885;55.848;35.916;2023-08-06T12:12:47;99307.81;;;41.36;27.83
76940;BME280;65885;55.848;35.916;2023-08-06T12:15:16;99307.53;;;41.37;28.00
76940;BME280;65885;55.848;35.916;2023-08-06T12:17:43;99302.28;;;41.36;27.86
76940;BME280;65885;55.848;35.916;2023-08-06T12:20:11;99302.81;;;41.33;27.65
76940;BME280;65885;55.848;35.916;2023-08-06T12:22:39;99295.88;;;41.20;27.27
76940;BME280;65885;55.848;35.916;2023-08-06T12:25:09;99292.75;;;41.11;27.69
76940;BME280;65885;55.848;35.916;2023-08-06T12:27:39;99288.13;;;41.12;27.92
76940;BME280;65885;55.848;35.916;2023-08-06T12:30:07;99288.94;;;41.12;27.53
76940;BME280;65885;55.848;35.916;2023-08-06T12:32:36;99274.34;;;41.12;27.10
76940;BME280;65885;55.848;35.916;2023-08-06T12:35:04;99278.44;;;41.09;27.77
76940;BME280;65885;55.848;35.916;2023-08-06T12:37:34;99276.78;;;41.08;27.88
76940;BME280;65885;55.848;35.916;2023-08-06T12:40:05;99273.75;;;41.10;28.23
76940;BME280;65885;55.848;35.916;2023-08-06T12:42:33;99278.47;;;41.14;28.42
76940;BME280;65885;55.848;35.916;2023-08-06T12:45:00;99274.06;;;41.13;28.28
76940;BME280;65885;55.848;35.916;2023-08-06T12:47:30;99278.75;;;41.13;28.87
76940;BME280;65885;55.848;35.916;2023-08-06T12:49:57;99274.59;;;41.10;28.41
76940;BME280;65885;55.848;35.916;2023-08-06T12:52:25;99274.00;;;41.03;28.13
76940;BME280;65885;55.848;35.916;2023-08-06T12:54:52;99270.91;;;40.89;28.32
76940;BME280;65885;55.848;35.916;2023-08-06T12:57:21;99269.94;;;40.73;28.20